Time;durP1;ratioP1;P1;durP2;ratioP2;P2;SDS_P1;SDS_P2;PMS_P1;PMS_P2;Temp;Humidity;BMP_temperature;BMP_pressure;BME280_temperature;BME280_humidity;BME280_pressure;Samples;Min_cycle;Max_cycle;Signal;HPM_P1;HPM_P2
2021/01/25 00:00:34;;;;;;;5.77;1.90;;;2.30;95.00;;;;;;10097384;28;83917;-74
2021/01/25 00:05:37;;;;;;;2.40;1.70;;;2.20;95.40;;;;;;10096726;28;84227;-72
2021/01/25 00:10:38;;;;;;;1.97;1.70;;;2.20;95.70;;;;;;10092685;28;83696;-73
2021/01/25 00:15:41;;;;;;;1.97;1.47;;;2.10;96.00;;;;;;10097299;28;84979;-73
2021/01/25 00:20:45;;;;;;;2.70;1.80;;;2.10;96.30;;;;;;10094233;28;83599;-73
2021/01/25 00:25:47;;;;;;;3.07;1.90;;;2.10;96.60;;;;;;10106111;28;83800;-73
2021/01/25 00:30:52;;;;;;;3.43;1.73;;;2.20;97.00;;;;;;10095319;28;85361;-73
2021/01/25 00:35:54;;;;;;;2.80;1.80;;;2.20;97.10;;;;;;10091691;28;84003;-73
2021/01/25 00:40:55;;;;;;;4.03;2.00;;;2.10;97.10;;;;;;10090391;28;82966;-72
2021/01/25 00:45:58;;;;;;;4.13;2.13;;;2.20;97.40;;;;;;10082064;28;86391;-73
2021/01/25 00:50:59;;;;;;;2.87;1.87;;;2.10;97.40;;;;;;10118465;28;83984;-74
2021/01/25 00:56:01;;;;;;;3.20;1.90;;;2.10;97.50;;;;;;10102727;28;83738;-73
2021/01/25 01:01:04;;;;;;;4.77;2.53;;;2.10;97.40;;;;;;10091718;28;87510;-74
2021/01/25 01:06:06;;;;;;;5.03;2.50;;;2.10;97.50;;;;;;10084988;28;85837;-73
2021/01/25 01:11:08;;;;;;;4.53;2.40;;;2.00;97.50;;;;;;10108285;28;83779;-73
2021/01/25 01:16:13;;;;;;;3.73;2.37;;;1.90;97.70;;;;;;10099025;28;84095;-73
2021/01/25 01:21:15;;;;;;;3.17;2.10;;;1.80;97.80;;;;;;10102301;28;83079;-73
2021/01/25 01:26:16;;;;;;;4.93;2.47;;;1.80;97.90;;;;;;10105173;28;84049;-73
2021/01/25 01:31:19;;;;;;;4.77;2.80;;;1.70;98.00;;;;;;10102946;28;83898;-73
2021/01/25 01:36:20;;;;;;;6.80;3.33;;;1.80;98.10;;;;;;10103763;28;84004;-73
2021/01/25 01:41:22;;;;;;;5.30;2.73;;;1.80;98.00;;;;;;10102078;28;84175;-73
2021/01/25 01:46:24;;;;;;;7.47;3.23;;;1.80;98.40;;;;;;10099013;28;83712;-73
2021/01/25 01:51:26;;;;;;;7.20;3.30;;;1.90;98.40;;;;;;10097401;28;83911;-73
2021/01/25 01:56:28;;;;;;;5.37;2.90;;;1.90;98.10;;;;;;10088778;28;83988;-72
2021/01/25 02:01:31;;;;;;;4.33;2.50;;;1.90;98.30;;;;;;10099251;28;84069;-73
2021/01/25 02:06:34;;;;;;;6.67;2.87;;;1.80;98.60;;;;;;10098929;28;83604;-73
2021/01/25 02:11:36;;;;;;;5.30;2.90;;;1.70;98.90;;;;;;10101127;28;83282;-73
2021/01/25 02:16:39;;;;;;;6.57;3.17;;;1.60;99.00;;;;;;10124494;28;83510;-73
2021/01/25 02:21:55;;;;;;;6.30;3.43;;;1.60;99.20;;;;;;10112917;28;84058;-73
2021/01/25 02:27:26;;;;;;;7.37;3.40;;;1.70;99.50;;;;;;10097985;28;83447;-72
2021/01/25 02:32:31;;;;;;;5.57;3.00;;;1.60;99.60;;;;;;10114396;28;83912;-73
2021/01/25 02:37:34;;;;;;;8.27;3.10;;;1.50;99.80;;;;;;10101158;28;84039;-73
2021/01/25 02:42:37;;;;;;;7.33;4.17;;;1.40;99.90;;;;;;10099657;28;83801;-72
2021/01/25 02:47:39;;;;;;;7.23;3.97;;;1.40;99.90;;;;;;10097829;28;83972;-73
2021/01/25 02:52:41;;;;;;;5.13;3.03;;;1.40;99.90;;;;;;10097258;28;85454;-73
2021/01/25 02:57:45;;;;;;;4.77;2.40;;;1.40;99.90;;;;;;10097288;28;84152;-74
2021/01/25 03:02:47;;;;;;;3.63;2.43;;;1.50;99.90;;;;;;10099340;28;83527;-73
2021/01/25 03:07:51;;;;;;;3.83;2.27;;;1.50;99.90;;;;;;10097917;28;83790;-73
2021/01/25 03:13:00;;;;;;;4.57;2.90;;;1.50;99.90;;;;;;10097509;28;84074;-73
2021/01/25 03:18:01;;;;;;;4.73;2.33;;;1.50;99.90;;;;;;10099854;28;84793;-73
2021/01/25 03:23:03;;;;;;;4.60;2.60;;;1.50;99.90;;;;;;10092551;28;83550;-72
2021/01/25 03:28:06;;;;;;;6.50;3.37;;;1.50;99.90;;;;;;10096817;28;83715;-73
2021/01/25 03:33:08;;;;;;;5.13;2.90;;;1.50;99.90;;;;;;10101015;28;83860;-73
2021/01/25 03:38:10;;;;;;;5.80;3.17;;;1.50;99.90;;;;;;10094519;28;83808;-73
2021/01/25 03:43:15;;;;;;;7.17;3.77;;;1.50;99.90;;;;;;10098820;28;83873;-73
2021/01/25 03:48:16;;;;;;;8.70;3.80;;;1.50;99.90;;;;;;10094858;28;83750;-72
2021/01/25 03:53:21;;;;;;;7.43;3.30;;;1.50;99.90;;;;;;10098037;28;81698;-72
2021/01/25 03:58:24;;;;;;;6.10;3.07;;;1.50;99.90;;;;;;10097599;28;84204;-72
2021/01/25 04:03:25;;;;;;;8.83;4.20;;;1.60;99.90;;;;;;10095295;28;84224;-73
2021/01/25 04:08:27;;;;;;;7.67;3.50;;;1.60;99.90;;;;;;10117941;28;84985;-72
2021/01/25 04:13:30;;;;;;;5.80;3.30;;;1.50;99.90;;;;;;10078930;28;85395;-73
2021/01/25 04:18:31;;;;;;;6.03;3.30;;;1.40;99.90;;;;;;10095110;28;83957;-72
2021/01/25 04:23:33;;;;;;;5.90;3.17;;;1.30;99.90;;;;;;10100154;28;83768;-72
2021/01/25 04:28:35;;;;;;;4.60;2.47;;;1.30;99.90;;;;;;10119755;28;83214;-73
2021/01/25 04:33:37;;;;;;;5.20;3.03;;;1.40;99.90;;;;;;10100249;28;83693;-73
2021/01/25 04:38:39;;;;;;;7.03;3.00;;;1.40;99.90;;;;;;10105396;28;83728;-72
2021/01/25 04:43:42;;;;;;;4.17;2.60;;;1.40;99.90;;;;;;10103491;28;82946;-72
2021/01/25 04:48:45;;;;;;;6.37;3.50;;;1.40;99.90;;;;;;10100863;28;83997;-73
2021/01/25 04:53:47;;;;;;;6.53;3.40;;;1.40;99.90;;;;;;10113595;28;87039;-72
2021/01/25 04:58:52;;;;;;;6.30;3.60;;;1.40;99.90;;;;;;10099566;28;85924;-73
2021/01/25 05:03:54;;;;;;;5.57;2.63;;;1.40;99.90;;;;;;10101300;28;83844;-72
2021/01/25 05:08:55;;;;;;;8.73;2.57;;;1.40;99.90;;;;;;10100148;28;83765;-72
2021/01/25 05:14:03;;;;;;;4.93;2.97;;;1.40;99.90;;;;;;10085430;28;83599;-72
2021/01/25 05:19:06;;;;;;;5.90;2.73;;;1.50;99.90;;;;;;10101999;28;83976;-72
2021/01/25 05:24:10;;;;;;;6.23;2.87;;;1.50;99.90;;;;;;10101582;28;85043;-73
2021/01/25 05:29:22;;;;;;;6.33;3.20;;;1.50;99.90;;;;;;10102327;28;83877;-72
2021/01/25 05:34:26;;;;;;;5.70;3.30;;;1.60;99.90;;;;;;10107820;28;83764;-72
2021/01/25 05:39:32;;;;;;;6.30;3.20;;;1.70;99.90;;;;;;10100890;28;83895;-73
2021/01/25 05:44:34;;;;;;;8.17;3.17;;;1.80;99.90;;;;;;10099111;28;84033;-72
2021/01/25 05:49:36;;;;;;;4.77;2.87;;;1.80;99.90;;;;;;10099589;28;84392;-72
2021/01/25 05:54:38;;;;;;;4.33;2.90;;;1.90;99.90;;;;;;10103219;28;84014;-74
2021/01/25 05:59:40;;;;;;;4.93;2.57;;;1.90;99.90;;;;;;10099720;28;83270;-72
2021/01/25 06:04:42;;;;;;;4.60;2.70;;;2.00;99.90;;;;;;10094786;28;86188;-72
2021/01/25 06:09:50;;;;;;;4.23;2.50;;;2.00;99.90;;;;;;10097336;28;83703;-72
2021/01/25 06:15:02;;;;;;;2.93;1.70;;;1.90;99.90;;;;;;10101288;28;83590;-72
2021/01/25 06:20:06;;;;;;;3.13;2.03;;;1.90;99.90;;;;;;10143163;28;83227;-72
2021/01/25 06:25:09;;;;;;;2.57;1.70;;;1.90;99.90;;;;;;10156346;28;81935;-72
2021/01/25 06:30:14;;;;;;;1.27;1.17;;;1.90;99.90;;;;;;10145241;28;83059;-72
2021/01/25 06:35:17;;;;;;;4.97;1.60;;;1.90;99.90;;;;;;10133390;28;83637;-72
2021/01/25 06:40:25;;;;;;;3.60;2.20;;;1.90;99.90;;;;;;10146590;28;84982;-72
2021/01/25 06:45:27;;;;;;;2.60;1.60;;;1.90;99.90;;;;;;10151262;28;82663;-73
2021/01/25 06:50:29;;;;;;;2.23;1.17;;;1.90;99.90;;;;;;10153695;28;82354;-72
2021/01/25 06:55:32;;;;;;;1.33;1.13;;;2.00;99.90;;;;;;10149227;28;83108;-71
2021/01/25 07:00:37;;;;;;;1.57;1.30;;;2.00;99.90;;;;;;10134827;28;82530;-72
2021/01/25 07:05:39;;;;;;;2.23;1.53;;;2.00;99.90;;;;;;10143699;28;82631;-72
2021/01/25 07:10:49;;;;;;;2.30;1.30;;;2.00;99.90;;;;;;10148025;28;83290;-72
2021/01/25 07:15:53;;;;;;;2.93;1.60;;;2.10;99.90;;;;;;10139170;28;81734;-72
2021/01/25 07:20:58;;;;;;;1.33;1.10;;;2.20;99.90;;;;;;10149679;28;82642;-73
2021/01/25 07:26:01;;;;;;;3.20;1.27;;;2.20;99.90;;;;;;10142337;28;82414;-72
2021/01/25 07:31:04;;;;;;;1.13;1.00;;;2.30;99.90;;;;;;10147522;28;84589;-72
2021/01/25 07:36:06;;;;;;;1.30;1.20;;;2.30;99.90;;;;;;10142584;28;83157;-72
2021/01/25 07:41:09;;;;;;;1.10;1.00;;;2.30;99.90;;;;;;10136751;28;83955;-72
2021/01/25 07:46:11;;;;;;;1.40;1.30;;;2.30;99.90;;;;;;10141732;28;84501;-71
2021/01/25 07:51:19;;;;;;;1.20;1.10;;;2.30;99.90;;;;;;10128571;28;82533;-72
2021/01/25 07:56:23;;;;;;;2.80;1.30;;;2.30;99.90;;;;;;10139830;28;82783;-72
2021/01/25 08:01:30;;;;;;;1.10;1.10;;;2.50;99.90;;;;;;10143544;28;84025;-72
2021/01/25 08:06:37;;;;;;;2.97;1.30;;;2.60;99.90;;;;;;10138216;28;82879;-71
2021/01/25 08:11:41;;;;;;;1.23;1.10;;;2.60;99.90;;;;;;10143177;28;82561;-71
2021/01/25 08:16:47;;;;;;;1.97;1.17;;;2.70;99.90;;;;;;10138502;28;82565;-72
2021/01/25 08:21:57;;;;;;;1.53;1.20;;;2.60;99.90;;;;;;10139764;28;84073;-71
2021/01/25 08:27:10;;;;;;;1.30;1.20;;;2.70;99.90;;;;;;10132166;28;83535;-71
2021/01/25 08:32:22;;;;;;;2.20;1.37;;;2.70;99.90;;;;;;10135216;28;82582;-72
2021/01/25 08:37:27;;;;;;;1.10;1.10;;;2.70;99.90;;;;;;10130730;28;83754;-72
2021/01/25 08:42:34;;;;;;;4.73;1.20;;;2.60;99.90;;;;;;10119873;28;83416;-72
2021/01/25 08:47:36;;;;;;;1.13;0.80;;;2.40;99.90;;;;;;10139207;28;82560;-72
2021/01/25 08:52:39;;;;;;;1.10;1.00;;;2.30;99.90;;;;;;10139322;28;83328;-72
2021/01/25 08:57:43;;;;;;;1.00;0.90;;;2.20;99.90;;;;;;10145874;28;81821;-72
2021/01/25 09:02:47;;;;;;;1.53;1.10;;;2.10;99.90;;;;;;10139152;28;82149;-72
2021/01/25 09:07:51;;;;;;;1.50;1.40;;;2.20;99.90;;;;;;10136271;28;82627;-72
2021/01/25 09:12:53;;;;;;;0.97;0.87;;;2.30;99.90;;;;;;10143905;28;83583;-72
2021/01/25 09:17:56;;;;;;;1.97;1.37;;;2.30;99.90;;;;;;10151574;28;83699;-72
2021/01/25 09:22:58;;;;;;;1.10;1.00;;;2.20;99.90;;;;;;10136075;28;83761;-73
2021/01/25 09:28:00;;;;;;;1.00;1.00;;;2.30;99.90;;;;;;10132998;28;83825;-73
2021/01/25 09:33:02;;;;;;;0.90;0.90;;;2.50;99.90;;;;;;10144677;28;83717;-72
2021/01/25 09:38:04;;;;;;;1.57;1.10;;;2.60;99.90;;;;;;10146083;28;82598;-73
2021/01/25 09:43:05;;;;;;;0.90;0.90;;;2.60;99.90;;;;;;10144199;28;82304;-72
2021/01/25 09:48:08;;;;;;;1.10;1.00;;;2.60;99.90;;;;;;10133093;28;82234;-73
2021/01/25 09:53:10;;;;;;;1.60;1.23;;;2.60;99.90;;;;;;10149797;28;82640;-73
2021/01/25 09:58:12;;;;;;;2.37;1.20;;;2.70;99.90;;;;;;10141062;28;83662;-73
2021/01/25 10:03:14;;;;;;;1.20;1.10;;;3.00;99.90;;;;;;10140520;28;82900;-73
2021/01/25 10:08:16;;;;;;;1.27;1.17;;;3.50;99.90;;;;;;10142286;28;82829;-72
2021/01/25 10:13:18;;;;;;;1.57;1.30;;;4.00;99.90;;;;;;10152180;28;82616;-72
2021/01/25 10:18:20;;;;;;;1.73;1.30;;;4.20;99.90;;;;;;10149850;28;82611;-73
2021/01/25 10:23:22;;;;;;;2.10;1.50;;;4.40;99.90;;;;;;10126961;28;84039;-73
2021/01/25 10:28:24;;;;;;;3.47;1.57;;;4.60;99.90;;;;;;10146119;28;84437;-72
2021/01/25 10:33:27;;;;;;;2.57;1.50;;;4.60;99.90;;;;;;10140333;28;87286;-72
2021/01/25 10:38:28;;;;;;;4.10;1.53;;;4.60;99.90;;;;;;10142540;28;87507;-72
2021/01/25 10:43:30;;;;;;;1.47;1.17;;;4.50;99.90;;;;;;10136989;28;87978;-72
2021/01/25 10:48:32;;;;;;;2.07;1.50;;;4.30;99.90;;;;;;10144819;28;87233;-73
2021/01/25 10:53:34;;;;;;;0.97;0.83;;;4.40;99.90;;;;;;10136643;28;91511;-72
2021/01/25 10:58:37;;;;;;;1.70;1.00;;;4.00;99.70;;;;;;10137391;28;88853;-72
2021/01/25 11:03:39;;;;;;;2.60;1.30;;;4.00;99.80;;;;;;10140369;28;89400;-72
2021/01/25 11:08:41;;;;;;;2.33;1.13;;;4.10;99.80;;;;;;10131524;28;88269;-73
2021/01/25 11:13:43;;;;;;;2.17;1.30;;;4.40;99.90;;;;;;10142051;28;87931;-73
2021/01/25 11:18:45;;;;;;;1.20;1.10;;;5.00;99.80;;;;;;10144427;28;88633;-72
2021/01/25 11:23:49;;;;;;;3.27;1.20;;;5.40;99.40;;;;;;10144308;28;87641;-73
2021/01/25 11:28:51;;;;;;;5.83;1.30;;;5.60;98.70;;;;;;10136207;28;87910;-73
2021/01/25 11:33:53;;;;;;;2.83;1.10;;;5.90;98.50;;;;;;10133799;28;87785;-73
2021/01/25 11:38:55;;;;;;;2.23;1.27;;;6.80;98.20;;;;;;10145052;28;87642;-73
2021/01/25 11:43:56;;;;;;;1.47;1.30;;;7.30;97.40;;;;;;10139145;28;88736;-73
2021/01/25 11:48:59;;;;;;;1.33;1.03;;;9.00;97.30;;;;;;10134775;28;87803;-73
2021/01/25 11:54:00;;;;;;;1.10;0.90;;;8.80;94.90;;;;;;10133440;28;87619;-73
2021/01/25 11:59:02;;;;;;;1.50;1.10;;;8.70;93.30;;;;;;10138093;28;88391;-73
2021/01/25 12:04:06;;;;;;;1.60;0.90;;;7.70;92.30;;;;;;10145237;28;88831;-73
2021/01/25 12:09:07;;;;;;;2.90;0.80;;;6.60;92.50;;;;;;10137756;28;88646;-73
2021/01/25 12:14:11;;;;;;;3.03;0.80;;;5.50;92.80;;;;;;10137250;28;87783;-74
2021/01/25 12:19:13;;;;;;;1.40;0.90;;;4.90;93.60;;;;;;10134936;28;86870;-73
2021/01/25 12:24:15;;;;;;;1.10;1.00;;;4.90;94.80;;;;;;10150886;28;87767;-73
2021/01/25 12:29:17;;;;;;;1.83;1.00;;;7.50;95.80;;;;;;10128251;28;88631;-71
2021/01/25 12:34:19;;;;;;;3.57;1.10;;;9.40;93.60;;;;;;10132977;28;89769;-72
2021/01/25 12:39:21;;;;;;;1.35;1.00;;;9.30;92.40;;;;;;10115043;28;90314;-72
2021/01/25 12:44:22;;;;;;;1.60;1.50;;;10.30;91.70;;;;;;10144555;28;88719;-72
2021/01/25 12:49:25;;;;;;;1.00;0.80;;;13.10;90.60;;;;;;10145866;28;87659;-72
2021/01/25 12:54:26;;;;;;;1.55;0.90;;;14.20;83.10;;;;;;10147543;28;87604;-72
2021/01/25 12:59:28;;;;;;;1.20;1.08;;;13.20;78.60;;;;;;10147058;28;89884;-72
2021/01/25 13:04:30;;;;;;;1.40;1.00;;;12.30;75.60;;;;;;10148856;28;87604;-72
2021/01/25 13:09:32;;;;;;;1.23;1.10;;;11.20;76.10;;;;;;10148110;28;86966;-72
2021/01/25 13:14:33;;;;;;;1.57;1.20;;;9.70;76.70;;;;;;10148558;28;87608;-72
2021/01/25 13:19:36;;;;;;;1.33;1.20;;;8.40;78.70;;;;;;10141855;28;87751;-72
2021/01/25 13:24:37;;;;;;;2.07;1.33;;;8.10;81.00;;;;;;10143938;28;89754;-72
2021/01/25 13:29:39;;;;;;;2.30;1.40;;;8.10;82.70;;;;;;10142298;28;88645;-72
2021/01/25 13:34:41;;;;;;;2.23;1.17;;;7.90;83.30;;;;;;10142121;28;88828;-72
2021/01/25 13:39:43;;;;;;;1.63;1.20;;;7.70;84.00;;;;;;10143172;28;87892;-72
2021/01/25 13:44:44;;;;;;;8.10;1.70;;;7.80;84.70;;;;;;10148135;28;88188;-72
2021/01/25 13:49:47;;;;;;;2.20;1.30;;;7.50;84.80;;;;;;10143740;28;88713;-71
2021/01/25 13:54:48;;;;;;;1.73;1.20;;;7.50;85.50;;;;;;10135619;28;88067;-71
2021/01/25 13:59:50;;;;;;;2.40;1.27;;;7.40;85.70;;;;;;10143842;28;88866;-74
2021/01/25 14:04:52;;;;;;;1.73;1.33;;;7.30;86.10;;;;;;10130872;28;88004;-72
2021/01/25 14:09:56;;;;;;;4.23;1.30;;;7.30;86.20;;;;;;10143688;28;88619;-72
2021/01/25 14:14:58;;;;;;;8.20;1.37;;;7.30;86.40;;;;;;10133421;28;89330;-72
2021/01/25 14:20:00;;;;;;;2.30;1.10;;;7.10;86.40;;;;;;10141743;28;87710;-72
2021/01/25 14:25:03;;;;;;;1.90;1.40;;;6.70;86.40;;;;;;10141861;28;87681;-72
2021/01/25 14:30:06;;;;;;;2.97;1.30;;;6.30;87.30;;;;;;10145706;28;87626;-73
2021/01/25 14:35:11;;;;;;;1.83;1.50;;;6.10;88.10;;;;;;10142861;28;87699;-73
2021/01/25 14:40:14;;;;;;;6.20;1.50;;;5.90;88.80;;;;;;10146727;28;87587;-72
2021/01/25 14:45:18;;;;;;;4.70;1.60;;;5.80;89.50;;;;;;10141989;28;86929;-72
2021/01/25 14:50:23;;;;;;;2.63;1.20;;;5.30;90.00;;;;;;10141055;28;87114;-72
2021/01/25 14:55:28;;;;;;;1.67;1.20;;;4.60;91.40;;;;;;10141692;28;88559;-72
2021/01/25 15:00:30;;;;;;;1.27;1.10;;;3.80;93.20;;;;;;10137989;28;87734;-72
2021/01/25 15:05:33;;;;;;;3.77;1.60;;;3.30;94.20;;;;;;10132491;28;88729;-72
2021/01/25 15:10:37;;;;;;;5.13;1.80;;;3.10;94.80;;;;;;10131808;28;88662;-72
2021/01/25 15:15:38;;;;;;;2.20;1.47;;;2.90;95.40;;;;;;10131131;28;88231;-72
2021/01/25 15:20:41;;;;;;;1.50;1.27;;;3.00;95.80;;;;;;10134910;28;89787;-72
2021/01/25 15:25:45;;;;;;;1.30;1.20;;;3.10;96.10;;;;;;10144669;28;87612;-73
2021/01/25 15:30:47;;;;;;;3.97;1.20;;;3.10;96.30;;;;;;10150839;28;88525;-72
2021/01/25 15:35:49;;;;;;;1.87;1.20;;;3.10;96.40;;;;;;10124184;28;89604;-72
2021/01/25 15:40:51;;;;;;;2.63;1.10;;;3.10;96.60;;;;;;10136063;28;88066;-73
2021/01/25 15:45:53;;;;;;;2.27;1.30;;;3.00;96.70;;;;;;10140443;28;87740;-73
2021/01/25 15:50:55;;;;;;;2.60;1.37;;;3.10;97.00;;;;;;10134759;28;88720;-73
2021/01/25 15:55:58;;;;;;;1.10;1.00;;;3.00;97.00;;;;;;10125752;28;88631;-73
2021/01/25 16:01:00;;;;;;;1.33;1.03;;;3.00;97.00;;;;;;10137069;28;88979;-73
2021/01/25 16:06:11;;;;;;;1.87;1.30;;;2.90;97.10;;;;;;10126075;28;89501;-72
2021/01/25 16:11:21;;;;;;;1.57;1.40;;;2.60;97.10;;;;;;10139810;28;87304;-73
2021/01/25 16:16:23;;;;;;;1.53;1.40;;;2.60;97.40;;;;;;10138941;28;88087;-72
2021/01/25 16:21:25;;;;;;;4.77;2.23;;;2.50;97.60;;;;;;10143333;28;87594;-72
2021/01/25 16:26:27;;;;;;;4.43;1.83;;;2.50;98.00;;;;;;10145486;28;87974;-73
2021/01/25 16:31:29;;;;;;;2.77;1.60;;;2.50;98.30;;;;;;10140274;28;87164;-73
2021/01/25 16:36:31;;;;;;;6.20;2.37;;;2.40;98.30;;;;;;10138087;28;87212;-73
2021/01/25 16:41:33;;;;;;;2.73;1.53;;;2.30;98.40;;;;;;10134222;28;88249;-74
2021/01/25 16:46:34;;;;;;;2.23;1.57;;;2.20;98.50;;;;;;10121149;28;90470;-74
2021/01/25 16:51:37;;;;;;;3.03;2.07;;;2.10;98.60;;;;;;10137015;28;87482;-73
2021/01/25 16:56:38;;;;;;;2.70;1.70;;;2.20;98.70;;;;;;10129804;28;87592;-73
2021/01/25 17:01:40;;;;;;;6.37;2.67;;;2.10;98.80;;;;;;10131254;28;90524;-74
2021/01/25 17:06:42;;;;;;;4.00;2.03;;;2.00;98.90;;;;;;10134582;28;88343;-74
2021/01/25 17:11:44;;;;;;;2.23;1.87;;;2.00;99.10;;;;;;10137784;28;87507;-73
2021/01/25 17:16:46;;;;;;;2.07;1.80;;;2.10;99.10;;;;;;10133800;28;89068;-73
2021/01/25 17:21:55;;;;;;;3.40;1.90;;;2.00;99.20;;;;;;10138583;28;86957;-73
2021/01/25 17:26:57;;;;;;;2.70;1.80;;;2.00;99.40;;;;;;10131585;28;88625;-74
2021/01/25 17:31:59;;;;;;;2.30;1.90;;;2.00;99.50;;;;;;10133432;28;87653;-73
2021/01/25 17:37:02;;;;;;;3.73;2.20;;;2.00;99.60;;;;;;10133303;28;90202;-74
2021/01/25 17:42:04;;;;;;;3.80;2.33;;;1.90;99.90;;;;;;10128149;28;87265;-74
2021/01/25 17:47:06;;;;;;;5.13;2.47;;;1.90;99.90;;;;;;10123443;28;90122;-74
2021/01/25 17:52:09;;;;;;;3.57;2.27;;;1.80;99.90;;;;;;10138567;28;87634;-73
2021/01/25 17:57:11;;;;;;;3.97;2.20;;;1.90;99.90;;;;;;10132580;28;87795;-75
2021/01/25 18:02:12;;;;;;;5.27;3.17;;;1.90;99.90;;;;;;10131020;28;87682;-74
2021/01/25 18:07:15;;;;;;;8.33;3.30;;;1.90;99.90;;;;;;10144128;28;87709;-74
2021/01/25 18:12:17;;;;;;;6.13;3.20;;;1.90;99.90;;;;;;10133643;28;86931;-75
2021/01/25 18:17:18;;;;;;;7.67;3.30;;;1.90;99.90;;;;;;10140062;28;88757;-74
2021/01/25 18:22:21;;;;;;;5.97;3.03;;;1.90;99.90;;;;;;10144399;28;87709;-73
2021/01/25 18:27:25;;;;;;;6.23;3.23;;;1.80;99.90;;;;;;10129417;28;89658;-73
2021/01/25 18:32:28;;;;;;;6.03;3.07;;;1.90;99.90;;;;;;10136187;28;87490;-73
2021/01/25 18:37:31;;;;;;;4.40;3.00;;;1.90;99.90;;;;;;10139320;28;87403;-73
2021/01/25 18:42:33;;;;;;;6.03;3.30;;;1.90;99.90;;;;;;10144664;28;87537;-73
2021/01/25 18:47:37;;;;;;;6.83;3.60;;;2.00;99.90;;;;;;10150970;28;87531;-73
2021/01/25 18:52:39;;;;;;;5.70;3.10;;;2.00;99.90;;;;;;10149524;28;88252;-73
2021/01/25 18:57:42;;;;;;;15.07;5.37;;;2.10;99.90;;;;;;10146312;28;88377;-73
2021/01/25 19:02:44;;;;;;;18.90;7.33;;;2.10;99.90;;;;;;10156238;28;86962;-72
2021/01/25 19:07:47;;;;;;;15.23;6.60;;;2.10;99.90;;;;;;10147970;28;88164;-73
2021/01/25 19:12:49;;;;;;;8.97;3.90;;;2.00;99.90;;;;;;10151212;28;87614;-72
2021/01/25 19:17:52;;;;;;;21.53;8.67;;;2.00;99.90;;;;;;10153692;28;89385;-72
2021/01/25 19:22:55;;;;;;;17.40;6.80;;;2.10;99.90;;;;;;10153258;28;86837;-73
2021/01/25 19:27:57;;;;;;;7.67;3.67;;;2.00;99.90;;;;;;10129674;28;87245;-73
2021/01/25 19:33:00;;;;;;;6.43;2.90;;;2.00;99.90;;;;;;10122914;28;90647;-73
2021/01/25 19:38:03;;;;;;;4.63;2.43;;;2.10;99.90;;;;;;10127570;28;90287;-72
2021/01/25 19:43:09;;;;;;;5.70;3.20;;;2.10;99.90;;;;;;10140533;28;87538;-71
2021/01/25 19:48:13;;;;;;;6.57;3.60;;;2.10;99.90;;;;;;10141963;28;88061;-72
2021/01/25 19:53:16;;;;;;;7.13;3.67;;;2.20;99.90;;;;;;10138418;28;87572;-72
2021/01/25 19:58:18;;;;;;;8.53;4.00;;;2.20;99.90;;;;;;10127737;28;91062;-73
2021/01/25 20:03:21;;;;;;;4.30;2.53;;;2.10;99.90;;;;;;10138810;28;88972;-74
2021/01/25 20:08:24;;;;;;;5.87;2.40;;;2.10;99.90;;;;;;10135314;28;88594;-73
2021/01/25 20:13:25;;;;;;;5.53;2.53;;;2.20;99.90;;;;;;10138735;28;87598;-72
2021/01/25 20:18:27;;;;;;;5.60;2.67;;;2.10;99.90;;;;;;10138663;28;89669;-72
2021/01/25 20:23:32;;;;;;;5.83;2.60;;;2.10;99.90;;;;;;10130757;28;88785;-71
2021/01/25 20:28:33;;;;;;;5.13;2.50;;;2.10;99.90;;;;;;10130607;28;87424;-72
2021/01/25 20:33:41;;;;;;;7.20;2.80;;;2.10;99.90;;;;;;10130885;28;88485;-73
2021/01/25 20:38:45;;;;;;;6.87;3.10;;;2.10;99.90;;;;;;10145514;28;88726;-73
2021/01/25 20:43:47;;;;;;;5.63;2.80;;;2.10;99.90;;;;;;10149118;28;87390;-72
2021/01/25 20:48:49;;;;;;;6.77;2.90;;;2.00;99.90;;;;;;10140785;28;87685;-73
2021/01/25 20:53:51;;;;;;;5.53;2.60;;;2.00;99.90;;;;;;10133010;28;87588;-73
2021/01/25 20:58:53;;;;;;;4.33;2.43;;;2.00;99.90;;;;;;10133418;28;89406;-72
2021/01/25 21:03:55;;;;;;;5.57;2.33;;;1.90;99.90;;;;;;10137738;28;89768;-72
2021/01/25 21:08:58;;;;;;;7.37;2.47;;;1.90;99.90;;;;;;10146931;28;88523;-72
2021/01/25 21:14:07;;;;;;;4.93;2.53;;;1.90;99.90;;;;;;10128463;28;88231;-70
2021/01/25 21:19:10;;;;;;;3.70;2.20;;;1.90;99.90;;;;;;10136732;28;87585;-72
2021/01/25 21:24:12;;;;;;;4.10;2.30;;;1.90;99.90;;;;;;10132775;28;88912;-73
2021/01/25 21:29:14;;;;;;;3.83;2.10;;;1.90;99.90;;;;;;10158998;28;87637;-72
2021/01/25 21:34:16;;;;;;;5.70;2.80;;;1.80;99.90;;;;;;10145892;28;87036;-72
2021/01/25 21:39:19;;;;;;;5.87;2.80;;;1.80;99.90;;;;;;10138504;28;87564;-71
2021/01/25 21:44:21;;;;;;;7.53;3.07;;;1.70;99.90;;;;;;10146805;28;87923;-72
2021/01/25 21:49:23;;;;;;;8.63;3.30;;;1.60;99.90;;;;;;10145144;28;88477;-72
2021/01/25 21:54:25;;;;;;;10.13;3.50;;;1.50;99.90;;;;;;10149022;28;90010;-74
2021/01/25 21:59:27;;;;;;;7.67;3.50;;;1.50;99.90;;;;;;10148440;28;86888;-72
2021/01/25 22:04:28;;;;;;;5.80;2.87;;;1.40;99.90;;;;;;10139716;28;87518;-72
2021/01/25 22:09:31;;;;;;;8.13;3.40;;;1.40;99.90;;;;;;10146257;28;88320;-72
2021/01/25 22:14:32;;;;;;;4.37;2.90;;;1.40;99.90;;;;;;10133265;28;87652;-71
2021/01/25 22:19:34;;;;;;;8.90;2.90;;;1.40;99.90;;;;;;10147012;28;87552;-70
2021/01/25 22:24:39;;;;;;;7.37;3.10;;;1.50;99.90;;;;;;10147259;28;86934;-74
2021/01/25 22:29:41;;;;;;;5.97;3.30;;;1.50;99.90;;;;;;10147307;28;87825;-73
2021/01/25 22:34:43;;;;;;;4.27;2.80;;;1.50;99.90;;;;;;10147583;28;87580;-73
2021/01/25 22:39:45;;;;;;;7.40;3.30;;;1.50;99.90;;;;;;10134864;28;88588;-74
2021/01/25 22:44:47;;;;;;;5.10;2.60;;;1.50;99.90;;;;;;10146100;28;88472;-73
2021/01/25 22:49:49;;;;;;;4.37;2.70;;;1.50;99.90;;;;;;10134658;28;88633;-74
2021/01/25 22:54:52;;;;;;;3.93;2.43;;;1.60;99.90;;;;;;10135449;28;87746;-74
2021/01/25 22:59:53;;;;;;;6.50;2.50;;;1.70;99.90;;;;;;10141144;28;87760;-74
2021/01/25 23:04:55;;;;;;;4.63;2.70;;;1.70;99.90;;;;;;10155745;28;87551;-73
2021/01/25 23:09:57;;;;;;;3.90;2.27;;;1.70;99.90;;;;;;10133206;28;88098;-73
2021/01/25 23:14:59;;;;;;;4.60;2.60;;;1.80;99.90;;;;;;10125364;28;90046;-73
2021/01/25 23:20:01;;;;;;;5.20;2.77;;;1.80;99.90;;;;;;10140078;28;88563;-73
2021/01/25 23:25:04;;;;;;;6.83;3.00;;;1.70;99.90;;;;;;10146615;28;87862;-73
2021/01/25 23:30:11;;;;;;;7.13;3.30;;;1.60;99.90;;;;;;10141909;28;88532;-73
2021/01/25 23:35:15;;;;;;;4.83;3.00;;;1.50;99.90;;;;;;10147740;28;87824;-73
2021/01/25 23:40:21;;;;;;;8.27;3.50;;;1.50;99.90;;;;;;10142213;28;88358;-72
2021/01/25 23:45:23;;;;;;;7.80;3.50;;;1.50;99.90;;;;;;10148080;28;87590;-72
2021/01/25 23:50:24;;;;;;;6.97;3.40;;;1.60;99.90;;;;;;10144850;28;89026;-72
2021/01/25 23:55:27;;;;;;;7.47;3.23;;;1.50;99.90;;;;;;10131076;28;87998;-73
